Time;durP1;ratioP1;P1;durP2;ratioP2;P2;SDS_P1;SDS_P2;PMS_P1;PMS_P2;Temp;Humidity;BMP_temperature;BMP_pressure;BME280_temperature;BME280_humidity;BME280_pressure;Samples;Min_cycle;Max_cycle;Signal;HPM_P1;HPM_P2
2022/01/07 00:02:17;;;;;;;18.38;12.63;;;-2.40;99.90;;;;;;5004023;28;20389;-63
2022/01/07 00:04:43;;;;;;;12.73;8.35;;;-2.40;99.90;;;;;;5005368;28;20617;-62
2022/01/07 00:07:09;;;;;;;11.32;7.70;;;-2.40;99.90;;;;;;5006350;28;20109;-62
2022/01/07 00:09:38;;;;;;;10.27;7.60;;;-2.30;99.90;;;;;;5004312;28;20025;-61
2022/01/07 00:12:05;;;;;;;13.95;8.43;;;-2.30;99.90;;;;;;5007410;28;20037;-62
2022/01/07 00:14:36;;;;;;;14.60;9.63;;;-2.30;99.90;;;;;;5003839;28;20121;-62
2022/01/07 00:17:02;;;;;;;19.15;9.95;;;-2.30;99.90;;;;;;5005400;28;20030;-63
2022/01/07 00:19:37;;;;;;;14.27;11.18;;;-2.40;99.90;;;;;;5006372;28;20037;-61
2022/01/07 00:22:03;;;;;;;65.95;26.42;;;-2.40;99.90;;;;;;5005635;28;20400;-64
2022/01/07 00:24:29;;;;;;;51.20;23.75;;;-2.50;99.90;;;;;;5017733;28;20028;-65
2022/01/07 00:26:54;;;;;;;31.92;12.98;;;-2.50;99.90;;;;;;5005420;28;20492;-62
2022/01/07 00:29:20;;;;;;;20.40;9.32;;;-2.50;99.90;;;;;;5006508;28;20030;-62
2022/01/07 00:31:46;;;;;;;19.23;12.40;;;-2.50;99.90;;;;;;5006022;28;20029;-62
2022/01/07 00:34:11;;;;;;;16.08;10.88;;;-2.50;99.90;;;;;;5001776;28;20417;-62
2022/01/07 00:36:37;;;;;;;28.50;17.45;;;-2.50;99.90;;;;;;5003499;28;20026;-62
2022/01/07 00:39:03;;;;;;;11.93;10.32;;;-2.60;99.90;;;;;;5005138;28;20021;-65
2022/01/07 00:41:29;;;;;;;13.52;9.73;;;-2.50;99.90;;;;;;5005926;28;20018;-64
2022/01/07 00:43:54;;;;;;;18.63;8.98;;;-2.40;99.90;;;;;;5004352;28;20027;-66
2022/01/07 00:46:20;;;;;;;13.25;9.02;;;-2.40;99.90;;;;;;5004523;28;20022;-66
2022/01/07 00:48:46;;;;;;;15.05;8.50;;;-2.40;99.90;;;;;;5005646;28;20062;-62
2022/01/07 00:51:13;;;;;;;12.88;8.85;;;-2.40;99.90;;;;;;5004096;28;20097;-64
2022/01/07 00:53:39;;;;;;;15.35;9.98;;;-2.40;99.90;;;;;;5002581;28;20054;-61
2022/01/07 00:56:04;;;;;;;15.32;9.93;;;-2.40;99.90;;;;;;5004359;28;20508;-61
2022/01/07 00:58:30;;;;;;;14.93;10.18;;;-2.40;99.90;;;;;;5003598;28;20362;-63
2022/01/07 01:00:56;;;;;;;13.40;10.35;;;-2.50;99.90;;;;;;5005218;28;20386;-62
2022/01/07 01:03:21;;;;;;;17.33;10.45;;;-2.50;99.90;;;;;;5006139;28;20034;-66
2022/01/07 01:05:48;;;;;;;20.00;14.18;;;-2.50;99.90;;;;;;5006558;28;20660;-62
2022/01/07 01:08:14;;;;;;;17.65;12.63;;;-2.60;99.90;;;;;;5003057;28;20037;-64
2022/01/07 01:10:42;;;;;;;17.45;9.98;;;-2.60;99.90;;;;;;5003694;28;20034;-62
2022/01/07 01:13:09;;;;;;;15.48;9.95;;;-2.70;99.90;;;;;;5006333;28;20053;-61
2022/01/07 01:15:35;;;;;;;11.75;8.32;;;-2.70;99.90;;;;;;5005040;28;20026;-64
2022/01/07 01:18:00;;;;;;;14.98;9.38;;;-2.80;99.90;;;;;;5020158;28;20351;-62
2022/01/07 01:20:27;;;;;;;11.80;7.75;;;-2.80;99.90;;;;;;5003121;28;20120;-62
2022/01/07 01:22:53;;;;;;;10.82;8.45;;;-2.80;99.90;;;;;;5003625;28;20026;-62
2022/01/07 01:25:19;;;;;;;17.13;8.35;;;-2.80;99.90;;;;;;5003547;28;20022;-63
2022/01/07 01:27:45;;;;;;;14.55;9.00;;;-2.80;99.90;;;;;;5000145;28;20118;-62
2022/01/07 01:30:12;;;;;;;15.02;8.50;;;-2.80;99.90;;;;;;5003583;28;20049;-62
2022/01/07 01:32:39;;;;;;;11.85;9.35;;;-2.80;99.90;;;;;;5005538;28;20022;-62
2022/01/07 01:35:06;;;;;;;14.95;10.52;;;-2.80;99.90;;;;;;5004169;28;20037;-61
2022/01/07 01:37:32;;;;;;;16.85;12.15;;;-2.90;99.90;;;;;;5007778;28;20447;-61
2022/01/07 01:39:58;;;;;;;17.52;14.32;;;-2.90;99.90;;;;;;5004340;28;20045;-64
2022/01/07 01:42:24;;;;;;;19.30;10.90;;;-2.90;99.90;;;;;;5000873;28;20022;-63
2022/01/07 01:44:50;;;;;;;16.15;11.05;;;-2.90;99.90;;;;;;5008809;28;20018;-63
2022/01/07 01:47:16;;;;;;;14.20;10.95;;;-3.00;99.90;;;;;;5003045;28;20038;-63
2022/01/07 01:49:41;;;;;;;13.05;8.15;;;-3.00;99.90;;;;;;5004164;28;20614;-61
2022/01/07 01:52:08;;;;;;;12.00;7.55;;;-2.90;99.90;;;;;;5002911;28;20038;-61
2022/01/07 01:54:33;;;;;;;13.45;8.75;;;-2.90;99.90;;;;;;5000385;28;20033;-61
2022/01/07 01:57:00;;;;;;;12.45;7.78;;;-2.90;99.90;;;;;;5003592;28;20026;-61
2022/01/07 01:59:35;;;;;;;13.15;8.30;;;-2.90;99.90;;;;;;5004491;28;20088;-61
2022/01/07 02:02:01;;;;;;;16.83;8.48;;;-2.90;99.90;;;;;;5001407;28;20084;-65
2022/01/07 02:04:33;;;;;;;12.18;7.60;;;-2.90;99.90;;;;;;5004961;28;20026;-62
2022/01/07 02:06:59;;;;;;;15.43;9.70;;;-2.90;99.90;;;;;;5004271;28;20084;-61
2022/01/07 02:09:35;;;;;;;17.25;8.82;;;-2.90;99.90;;;;;;5005790;28;20025;-64
2022/01/07 02:12:04;;;;;;;13.57;7.88;;;-2.90;99.90;;;;;;5005497;28;20235;-61
2022/01/07 02:14:36;;;;;;;10.20;7.97;;;-3.00;99.90;;;;;;5001453;28;20105;-62
2022/01/07 02:17:09;;;;;;;16.35;8.93;;;-2.90;99.90;;;;;;5005056;28;20038;-61
2022/01/07 02:19:38;;;;;;;17.83;11.35;;;-3.00;99.90;;;;;;5004359;28;20044;-61
2022/01/07 02:22:04;;;;;;;19.65;11.45;;;-3.00;99.90;;;;;;5004363;28;20097;-64
2022/01/07 02:24:31;;;;;;;19.27;9.73;;;-3.00;99.90;;;;;;5002848;28;20026;-61
2022/01/07 02:26:57;;;;;;;12.77;8.95;;;-3.00;99.90;;;;;;5003815;28;20097;-61
2022/01/07 02:29:23;;;;;;;14.38;8.55;;;-3.00;99.90;;;;;;4998139;28;20031;-63
2022/01/07 02:31:49;;;;;;;16.58;8.73;;;-3.00;99.90;;;;;;5006374;28;20026;-61
2022/01/07 02:34:15;;;;;;;19.15;10.05;;;-3.00;99.90;;;;;;5001788;28;20033;-61
2022/01/07 02:36:41;;;;;;;10.70;7.88;;;-3.00;99.90;;;;;;5002157;28;20113;-61
2022/01/07 02:39:07;;;;;;;13.77;7.57;;;-3.00;99.90;;;;;;5004702;28;20149;-60
2022/01/07 02:41:33;;;;;;;12.15;8.55;;;-3.00;99.90;;;;;;5003576;28;20110;-60
2022/01/07 02:43:59;;;;;;;10.45;8.27;;;-3.00;99.90;;;;;;4999968;28;20022;-61
2022/01/07 02:46:24;;;;;;;14.98;10.35;;;-3.10;99.90;;;;;;5002187;28;20034;-63
2022/01/07 02:48:50;;;;;;;14.70;10.00;;;-3.10;99.90;;;;;;5005940;28;20029;-61
2022/01/07 02:51:16;;;;;;;14.65;11.38;;;-3.10;99.90;;;;;;5004718;28;20049;-63
2022/01/07 02:53:41;;;;;;;23.13;9.52;;;-3.10;99.90;;;;;;5000173;28;20113;-61
2022/01/07 02:56:07;;;;;;;13.85;9.32;;;-3.10;99.90;;;;;;5003567;28;20053;-62
2022/01/07 02:58:33;;;;;;;18.23;9.02;;;-3.00;99.90;;;;;;4999643;28;20061;-60
2022/01/07 03:00:58;;;;;;;14.82;8.63;;;-2.90;99.90;;;;;;4998082;28;20026;-61
2022/01/07 03:03:24;;;;;;;15.30;8.38;;;-2.90;99.90;;;;;;4999532;28;20033;-61
2022/01/07 03:05:50;;;;;;;13.10;8.32;;;-2.90;99.90;;;;;;5006086;28;20061;-61
2022/01/07 03:08:15;;;;;;;14.88;8.32;;;-2.80;99.90;;;;;;5001797;28;20053;-63
2022/01/07 03:10:41;;;;;;;14.35;8.50;;;-2.90;99.90;;;;;;5003639;28;20382;-64
2022/01/07 03:13:07;;;;;;;13.63;8.27;;;-2.90;99.90;;;;;;5000896;28;20528;-62
2022/01/07 03:15:37;;;;;;;15.05;7.72;;;-2.90;99.90;;;;;;5001316;28;20044;-63
2022/01/07 03:18:04;;;;;;;17.33;8.10;;;-2.90;99.90;;;;;;5002315;28;20084;-61
2022/01/07 03:20:30;;;;;;;16.95;8.20;;;-2.90;99.90;;;;;;5005048;28;20105;-61
2022/01/07 03:22:56;;;;;;;14.00;7.53;;;-2.90;99.90;;;;;;5000566;28;20450;-61
2022/01/07 03:25:22;;;;;;;26.08;9.48;;;-2.90;99.90;;;;;;5006552;28;20516;-62
2022/01/07 03:27:48;;;;;;;14.38;8.98;;;-3.00;99.90;;;;;;5001344;28;20113;-61
2022/01/07 03:30:15;;;;;;;18.23;8.80;;;-3.00;99.90;;;;;;5000806;28;20041;-60
2022/01/07 03:32:41;;;;;;;18.25;8.98;;;-3.00;99.90;;;;;;5000924;28;20898;-60
2022/01/07 03:35:10;;;;;;;16.25;9.32;;;-3.00;99.90;;;;;;5001901;28;20130;-60
2022/01/07 03:37:38;;;;;;;20.33;9.52;;;-3.00;99.90;;;;;;5003966;28;20030;-60
2022/01/07 03:40:04;;;;;;;13.95;8.65;;;-2.90;99.90;;;;;;5001431;28;20026;-60
2022/01/07 03:42:30;;;;;;;24.58;9.88;;;-2.90;99.90;;;;;;5001583;28;20573;-60
2022/01/07 03:44:56;;;;;;;17.85;9.52;;;-2.80;99.90;;;;;;5004550;28;20101;-62
2022/01/07 03:47:22;;;;;;;27.65;10.15;;;-2.80;99.90;;;;;;5004573;28;20100;-63
2022/01/07 03:49:48;;;;;;;13.48;8.57;;;-2.70;99.90;;;;;;4999846;28;20049;-61
2022/01/07 03:52:14;;;;;;;15.05;9.05;;;-2.70;99.90;;;;;;5001701;28;20041;-61
2022/01/07 03:54:39;;;;;;;18.52;10.00;;;-2.70;99.90;;;;;;4999857;28;20052;-64
2022/01/07 03:57:05;;;;;;;20.45;9.55;;;-2.70;99.90;;;;;;5001437;28;20053;-60
2022/01/07 03:59:32;;;;;;;17.02;9.25;;;-2.60;99.90;;;;;;4999628;28;20037;-60
2022/01/07 04:01:57;;;;;;;18.13;9.38;;;-2.60;99.90;;;;;;5002975;28;20159;-60
2022/01/07 04:04:23;;;;;;;20.42;10.73;;;-2.60;99.90;;;;;;4999736;28;20532;-64
2022/01/07 04:06:48;;;;;;;18.13;9.40;;;-2.60;99.90;;;;;;5000530;28;20096;-61
2022/01/07 04:09:14;;;;;;;21.83;10.70;;;-2.60;99.90;;;;;;5003730;28;20038;-62
2022/01/07 04:11:40;;;;;;;18.67;11.02;;;-2.50;99.90;;;;;;5001476;28;20022;-60
2022/01/07 04:14:05;;;;;;;17.50;10.52;;;-2.50;99.90;;;;;;5013679;28;20069;-61
2022/01/07 04:16:31;;;;;;;18.23;10.02;;;-2.50;99.90;;;;;;5000963;28;20034;-61
2022/01/07 04:18:57;;;;;;;38.33;12.52;;;-2.50;99.90;;;;;;5005230;28;20034;-60
2022/01/07 04:21:22;;;;;;;21.45;11.60;;;-2.40;99.90;;;;;;5004933;28;20034;-64
2022/01/07 04:23:48;;;;;;;18.80;10.45;;;-2.40;99.90;;;;;;5005545;28;20018;-61
2022/01/07 04:26:13;;;;;;;22.15;11.27;;;-2.50;99.90;;;;;;5004424;28;20034;-61
2022/01/07 04:28:39;;;;;;;28.20;12.55;;;-2.40;99.90;;;;;;5006565;28;20030;-61
2022/01/07 04:31:05;;;;;;;23.63;13.57;;;-2.40;99.90;;;;;;5002635;28;20486;-64
2022/01/07 04:33:33;;;;;;;22.80;11.65;;;-2.40;99.90;;;;;;5004234;28;20533;-60
2022/01/07 04:35:59;;;;;;;22.52;11.52;;;-2.30;99.90;;;;;;5004228;28;20014;-60
2022/01/07 04:38:25;;;;;;;25.35;12.10;;;-2.30;99.90;;;;;;5005141;28;20041;-60
2022/01/07 04:40:51;;;;;;;32.35;11.73;;;-2.30;99.90;;;;;;5006069;28;20126;-61
2022/01/07 04:43:17;;;;;;;25.10;12.98;;;-2.30;99.90;;;;;;5008761;28;20097;-63
2022/01/07 04:45:42;;;;;;;32.63;12.27;;;-2.30;99.90;;;;;;5006068;28;20030;-64
2022/01/07 04:48:08;;;;;;;27.05;11.32;;;-2.30;99.90;;;;;;5002906;28;20022;-60
2022/01/07 04:50:34;;;;;;;22.25;12.13;;;-2.30;99.90;;;;;;5003584;28;20038;-61
2022/01/07 04:53:00;;;;;;;32.30;12.70;;;-2.30;99.90;;;;;;5003633;28;20075;-64
2022/01/07 04:55:36;;;;;;;29.95;13.35;;;-2.30;99.90;;;;;;5003456;28;20070;-64
2022/01/07 04:58:02;;;;;;;25.63;11.38;;;-2.30;99.90;;;;;;5004832;28;20453;-61
2022/01/07 05:00:28;;;;;;;30.67;11.98;;;-2.30;99.90;;;;;;4997951;28;20025;-63
2022/01/07 05:02:54;;;;;;;24.42;14.30;;;-2.30;99.90;;;;;;5002641;28;20018;-60
2022/01/07 05:05:19;;;;;;;25.00;12.50;;;-2.30;99.90;;;;;;5002095;28;20038;-62
2022/01/07 05:07:45;;;;;;;31.55;12.93;;;-2.30;99.90;;;;;;5004793;28;20041;-61
2022/01/07 05:10:17;;;;;;;28.55;12.57;;;-2.30;99.90;;;;;;5001138;28;20035;-61
2022/01/07 05:12:43;;;;;;;22.92;11.45;;;-2.30;99.90;;;;;;5004290;28;20485;-59
2022/01/07 05:15:11;;;;;;;32.92;13.63;;;-2.30;99.90;;;;;;5007215;28;20030;-59
2022/01/07 05:17:37;;;;;;;31.55;13.07;;;-2.30;99.90;;;;;;5004063;28;20033;-58
2022/01/07 05:20:09;;;;;;;29.02;11.95;;;-2.40;99.90;;;;;;5003282;28;20030;-58
2022/01/07 05:22:35;;;;;;;29.60;13.63;;;-2.40;99.90;;;;;;5002209;28;20048;-59
2022/01/07 05:25:02;;;;;;;31.23;12.30;;;-2.40;99.90;;;;;;5004646;28;20037;-58
2022/01/07 05:27:27;;;;;;;31.52;14.07;;;-2.40;99.90;;;;;;5006055;28;20138;-57
2022/01/07 05:29:53;;;;;;;32.95;13.80;;;-2.30;99.90;;;;;;5005365;28;20105;-58
2022/01/07 05:32:19;;;;;;;30.50;13.50;;;-2.30;99.90;;;;;;5003518;28;20053;-59
2022/01/07 05:34:45;;;;;;;29.60;12.15;;;-2.30;99.90;;;;;;5005504;28;20034;-58
2022/01/07 05:37:11;;;;;;;28.73;13.25;;;-2.30;99.90;;;;;;5004852;28;20030;-58
2022/01/07 05:39:42;;;;;;;34.53;13.55;;;-2.30;99.90;;;;;;5003668;28;21642;-59
2022/01/07 05:42:08;;;;;;;29.55;13.75;;;-2.30;99.90;;;;;;5000566;28;20050;-59
2022/01/07 05:44:34;;;;;;;25.00;14.00;;;-2.30;99.90;;;;;;5005787;28;20434;-59
2022/01/07 05:46:59;;;;;;;32.33;12.73;;;-2.30;99.90;;;;;;5001578;28;20100;-59
2022/01/07 05:49:25;;;;;;;36.53;14.35;;;-2.30;99.90;;;;;;5005825;28;20129;-59
2022/01/07 05:51:50;;;;;;;32.25;13.88;;;-2.30;99.90;;;;;;5003939;28;20041;-57
2022/01/07 05:54:17;;;;;;;27.67;13.73;;;-2.30;99.90;;;;;;5004022;28;20033;-59
2022/01/07 05:56:43;;;;;;;29.35;13.40;;;-2.30;99.90;;;;;;5003444;28;20045;-58
2022/01/07 05:59:08;;;;;;;36.55;14.48;;;-2.40;99.90;;;;;;5003251;28;20041;-57
2022/01/07 06:01:34;;;;;;;28.70;13.27;;;-2.40;99.90;;;;;;5001527;28;20029;-58
2022/01/07 06:04:00;;;;;;;29.48;13.57;;;-2.40;99.90;;;;;;5018091;28;20030;-59
2022/01/07 06:06:27;;;;;;;29.85;15.15;;;-2.40;99.90;;;;;;5000631;28;20621;-58
2022/01/07 06:08:52;;;;;;;32.05;13.25;;;-2.40;99.90;;;;;;5005377;28;20029;-58
2022/01/07 06:11:18;;;;;;;30.63;13.40;;;-2.40;99.90;;;;;;5001239;28;20125;-58
2022/01/07 06:13:43;;;;;;;21.98;12.88;;;-2.40;99.90;;;;;;5004194;28;20505;-58
2022/01/07 06:16:09;;;;;;;32.88;13.40;;;-2.40;99.90;;;;;;5003504;28;20033;-63
2022/01/07 06:18:39;;;;;;;27.38;12.52;;;-2.40;99.90;;;;;;5002437;28;20026;-60
2022/01/07 06:21:04;;;;;;;36.55;13.63;;;-2.40;99.90;;;;;;5001897;28;20032;-60
2022/01/07 06:23:30;;;;;;;34.85;14.70;;;-2.40;99.90;;;;;;5006071;28;20026;-60
2022/01/07 06:25:56;;;;;;;37.13;15.13;;;-2.40;99.90;;;;;;5003289;28;20026;-60
2022/01/07 06:28:22;;;;;;;35.15;13.15;;;-2.40;99.90;;;;;;5004348;28;20457;-60
2022/01/07 06:30:47;;;;;;;32.35;13.80;;;-2.40;99.90;;;;;;5002108;28;20050;-60
2022/01/07 06:33:13;;;;;;;30.90;13.15;;;-2.40;99.90;;;;;;5005855;28;20441;-60
2022/01/07 06:35:39;;;;;;;30.45;13.20;;;-2.40;99.90;;;;;;5002766;28;20041;-60
2022/01/07 06:38:05;;;;;;;31.27;12.70;;;-2.40;99.90;;;;;;5001732;28;20125;-61
2022/01/07 06:40:31;;;;;;;32.25;13.60;;;-2.40;99.90;;;;;;4999796;28;20034;-60
2022/01/07 06:42:56;;;;;;;32.25;13.55;;;-2.40;99.90;;;;;;5001411;28;20508;-60
2022/01/07 06:45:22;;;;;;;31.48;13.93;;;-2.40;99.90;;;;;;5003162;28;20026;-61
2022/01/07 06:47:48;;;;;;;28.27;12.00;;;-2.40;99.90;;;;;;5007418;28;20562;-60
2022/01/07 06:50:13;;;;;;;30.45;13.35;;;-2.40;99.90;;;;;;5003005;28;20034;-60
2022/01/07 06:52:39;;;;;;;27.05;12.55;;;-2.40;99.90;;;;;;5001611;28;20034;-60
2022/01/07 06:55:06;;;;;;;26.63;13.40;;;-2.40;99.90;;;;;;5002478;28;20038;-60
2022/01/07 06:57:31;;;;;;;28.98;11.57;;;-2.40;99.90;;;;;;5003792;28;20021;-61
2022/01/07 06:59:57;;;;;;;29.38;14.15;;;-2.50;99.90;;;;;;5000318;28;20052;-61
2022/01/07 07:02:23;;;;;;;31.77;13.63;;;-2.40;99.90;;;;;;5005133;28;20520;-61
2022/01/07 07:04:49;;;;;;;31.35;15.07;;;-2.50;99.90;;;;;;5004138;28;20063;-60
2022/01/07 07:07:15;;;;;;;29.50;12.30;;;-2.50;99.90;;;;;;5005682;28;20050;-60
2022/01/07 07:09:40;;;;;;;27.02;13.02;;;-2.40;99.90;;;;;;5003990;28;20022;-61
2022/01/07 07:12:07;;;;;;;30.15;12.85;;;-2.40;99.90;;;;;;5003873;28;20025;-60
2022/01/07 07:14:36;;;;;;;28.63;13.13;;;-2.40;99.90;;;;;;5004998;28;20052;-60
2022/01/07 07:17:02;;;;;;;33.55;13.18;;;-2.40;99.90;;;;;;5004267;28;20029;-60
2022/01/07 07:19:37;;;;;;;28.65;12.95;;;-2.40;99.90;;;;;;5001140;28;20198;-60
2022/01/07 07:22:03;;;;;;;34.70;13.00;;;-2.40;99.90;;;;;;5002806;28;20062;-60
2022/01/07 07:24:38;;;;;;;24.95;12.90;;;-2.30;99.90;;;;;;5001569;28;20065;-60
2022/01/07 07:27:04;;;;;;;41.45;12.68;;;-2.30;99.90;;;;;;5001632;28;20068;-60
2022/01/07 07:29:39;;;;;;;27.98;11.82;;;-2.30;99.90;;;;;;5002671;28;20030;-60
2022/01/07 07:32:08;;;;;;;20.60;11.73;;;-2.30;99.90;;;;;;5001049;28;20575;-61
2022/01/07 07:37:07;;;;;;;27.60;12.63;;;-2.20;99.90;;;;;;5001677;28;20100;-60
2022/01/07 07:39:40;;;;;;;25.23;11.95;;;-2.20;99.90;;;;;;5004062;28;20045;-61
2022/01/07 07:42:06;;;;;;;28.88;12.32;;;-2.20;99.90;;;;;;5002517;28;20018;-60
2022/01/07 07:45:21;;;;;;;26.17;12.13;;;-2.20;99.90;;;;;;5004091;28;20034;-60
2022/01/07 07:47:50;;;;;;;32.70;13.60;;;-2.10;99.90;;;;;;5016240;28;20035;-60
2022/01/07 07:50:15;;;;;;;27.98;12.13;;;-2.10;99.90;;;;;;5002791;28;20647;-60
2022/01/07 07:52:41;;;;;;;21.42;10.65;;;-2.00;99.90;;;;;;5005110;28;20033;-60
2022/01/07 07:55:07;;;;;;;25.02;12.10;;;-2.00;99.90;;;;;;4999642;28;20030;-60
2022/01/07 07:57:32;;;;;;;30.38;13.20;;;-2.00;99.90;;;;;;5004871;28;20422;-60
2022/01/07 07:59:58;;;;;;;27.67;12.07;;;-1.90;99.90;;;;;;5008104;28;20085;-60
2022/01/07 08:02:24;;;;;;;21.77;11.18;;;-1.90;99.90;;;;;;5010063;28;20030;-60
2022/01/07 08:04:49;;;;;;;22.52;11.05;;;-1.80;99.90;;;;;;5006412;28;20034;-60
2022/01/07 08:07:16;;;;;;;19.55;10.43;;;-1.80;99.90;;;;;;5007847;28;20033;-60
2022/01/07 08:09:43;;;;;;;20.95;10.75;;;-1.70;99.90;;;;;;5004906;28;20504;-60
2022/01/07 08:12:19;;;;;;;19.90;11.32;;;-1.70;99.90;;;;;;5008059;28;20009;-61
2022/01/07 08:17:29;;;;;;;24.60;11.02;;;-1.60;99.90;;;;;;5008655;28;20037;-60
2022/01/07 08:19:55;;;;;;;19.73;10.40;;;-1.50;99.90;;;;;;5003734;28;20397;-60
2022/01/07 08:22:20;;;;;;;14.88;10.93;;;-1.40;99.90;;;;;;5003138;28;20042;-60
2022/01/07 08:24:46;;;;;;;18.88;9.85;;;-1.30;99.90;;;;;;5003484;28;20040;-60
2022/01/07 08:27:12;;;;;;;19.70;9.63;;;-1.20;99.90;;;;;;5005343;28;20018;-61
2022/01/07 08:29:39;;;;;;;23.08;10.35;;;-1.20;99.90;;;;;;5003264;28;20026;-60
2022/01/07 08:35:04;;;;;;;24.10;10.40;;;-1.00;99.90;;;;;;5005135;28;20028;-61
2022/01/07 08:37:30;;;;;;;18.65;10.25;;;-0.80;99.90;;;;;;5003671;28;20585;-60
2022/01/07 08:40:02;;;;;;;15.18;9.90;;;-0.60;99.90;;;;;;5004879;28;20493;-60
2022/01/07 08:42:28;;;;;;;19.23;10.25;;;-0.30;99.90;;;;;;5020063;28;20033;-61
2022/01/07 08:44:54;;;;;;;13.48;8.50;;;-0.10;99.90;;;;;;5007882;28;20022;-61
2022/01/07 08:47:23;;;;;;;14.32;8.70;;;0.20;99.90;;;;;;5002397;28;20497;-60
2022/01/07 08:49:49;;;;;;;16.88;9.48;;;0.40;99.90;;;;;;5013372;28;20116;-61
2022/01/07 08:52:15;;;;;;;12.25;8.27;;;0.60;99.90;;;;;;5002755;28;20513;-61
2022/01/07 08:54:40;;;;;;;18.50;8.77;;;0.80;99.90;;;;;;5008177;28;20077;-61
2022/01/07 08:57:06;;;;;;;16.70;7.93;;;1.10;99.90;;;;;;5006029;28;20052;-60
2022/01/07 08:59:32;;;;;;;14.13;7.45;;;1.40;99.90;;;;;;5003465;28;20802;-61
2022/01/07 09:01:57;;;;;;;10.13;7.30;;;1.90;99.90;;;;;;5003988;28;20065;-60
2022/01/07 09:04:32;;;;;;;11.82;5.47;;;2.60;99.90;;;;;;5004077;28;20396;-61
2022/01/07 09:06:58;;;;;;;10.73;6.80;;;3.50;99.90;;;;;;5004904;28;20109;-60
2022/01/07 09:09:33;;;;;;;9.57;5.95;;;4.00;99.90;;;;;;5006631;28;20550;-60
2022/01/07 09:11:58;;;;;;;7.78;5.57;;;3.90;99.90;;;;;;5003303;28;20030;-60
2022/01/07 09:14:24;;;;;;;9.15;6.35;;;3.50;99.90;;;;;;5004089;28;20042;-61
2022/01/07 09:16:49;;;;;;;14.95;6.95;;;3.00;99.90;;;;;;5003447;28;20477;-60
2022/01/07 09:19:15;;;;;;;11.77;6.20;;;2.60;99.90;;;;;;5002031;28;20038;-60
2022/01/07 09:21:41;;;;;;;15.10;6.35;;;2.30;99.90;;;;;;5007949;28;20041;-60
2022/01/07 09:24:07;;;;;;;12.20;7.38;;;2.10;99.90;;;;;;5007114;28;20053;-60
2022/01/07 09:26:33;;;;;;;10.57;6.57;;;2.00;99.90;;;;;;4999828;28;20026;-61
2022/01/07 09:28:59;;;;;;;11.65;7.20;;;1.70;99.90;;;;;;5004149;28;20022;-61
2022/01/07 09:31:39;;;;;;;10.57;7.03;;;1.50;99.90;;;;;;5004568;28;20208;-61
2022/01/07 09:34:08;;;;;;;13.33;7.43;;;1.40;99.90;;;;;;5000051;28;20494;-60
2022/01/07 09:36:37;;;;;;;15.65;7.53;;;1.10;99.90;;;;;;5006107;28;20014;-63
2022/01/07 09:39:02;;;;;;;8.15;6.60;;;1.00;99.90;;;;;;5002031;28;20038;-61
2022/01/07 09:41:37;;;;;;;11.38;7.85;;;0.90;99.90;;;;;;5003265;28;20453;-61
2022/01/07 09:44:18;;;;;;;11.27;7.78;;;0.90;99.90;;;;;;5008844;28;20537;-61
2022/01/07 09:46:44;;;;;;;9.00;7.03;;;0.80;99.90;;;;;;5004573;28;20041;-61
2022/01/07 09:49:10;;;;;;;11.25;7.10;;;0.80;99.90;;;;;;5002869;28;20030;-62
2022/01/07 09:51:40;;;;;;;11.25;7.20;;;0.70;99.90;;;;;;4995436;28;20053;-62
2022/01/07 09:54:07;;;;;;;14.95;8.38;;;0.70;99.90;;;;;;4987027;28;20089;-62
2022/01/07 09:56:39;;;;;;;16.25;9.73;;;0.60;99.90;;;;;;5002847;28;20140;-62
2022/01/07 09:59:11;;;;;;;13.27;8.63;;;0.50;99.90;;;;;;4994961;28;20025;-62
2022/01/07 10:01:59;;;;;;;15.88;8.77;;;0.60;99.90;;;;;;5009474;28;20049;-62
2022/01/07 10:04:33;;;;;;;12.82;7.95;;;0.60;99.90;;;;;;5002380;28;20485;-62
2022/01/07 10:07:16;;;;;;;11.25;9.40;;;0.60;99.90;;;;;;5004305;28;20037;-62
2022/01/07 10:10:01;;;;;;;16.25;9.02;;;0.60;99.90;;;;;;5002512;28;20026;-62
2022/01/07 10:12:50;;;;;;;17.08;9.27;;;0.60;99.90;;;;;;4974773;28;20662;-63
2022/01/07 10:15:18;;;;;;;12.57;8.23;;;0.70;99.90;;;;;;4994427;28;20018;-62
2022/01/07 10:17:58;;;;;;;15.50;9.85;;;0.80;99.90;;;;;;5016878;28;20042;-62
2022/01/07 10:20:26;;;;;;;12.57;8.63;;;1.00;99.90;;;;;;4959974;28;20405;-62
2022/01/07 10:23:04;;;;;;;11.55;8.73;;;1.10;99.90;;;;;;5005685;28;20308;-62
2022/01/07 10:25:33;;;;;;;14.05;8.05;;;1.20;99.90;;;;;;5007988;28;20034;-62
2022/01/07 10:28:19;;;;;;;15.25;8.23;;;1.30;99.90;;;;;;5003332;28;20030;-62
2022/01/07 10:30:47;;;;;;;13.18;8.32;;;1.40;99.90;;;;;;5006051;28;20026;-62
2022/01/07 10:33:35;;;;;;;11.43;8.77;;;1.40;99.90;;;;;;5002856;28;20027;-62
2022/01/07 10:36:06;;;;;;;10.63;7.88;;;1.50;99.90;;;;;;5005479;28;20085;-62
2022/01/07 10:38:34;;;;;;;13.15;7.93;;;1.50;99.90;;;;;;5005528;28;20034;-62
2022/01/07 10:41:00;;;;;;;11.60;8.38;;;1.60;99.90;;;;;;5002097;28;20132;-62
2022/01/07 10:43:36;;;;;;;15.05;8.63;;;1.60;99.90;;;;;;5003697;28;20022;-62
2022/01/07 10:46:11;;;;;;;13.60;8.23;;;1.70;99.90;;;;;;5000864;28;20626;-62
2022/01/07 10:48:55;;;;;;;11.18;7.70;;;1.80;99.90;;;;;;5005299;28;20049;-63
2022/01/07 10:51:44;;;;;;;14.32;8.25;;;1.90;99.90;;;;;;4999446;28;20025;-61
2022/01/07 10:54:16;;;;;;;14.05;8.13;;;2.10;99.90;;;;;;5001761;28;24482;-62
2022/01/07 10:56:51;;;;;;;8.68;7.72;;;2.10;99.90;;;;;;5000900;28;20030;-62
2022/01/07 10:59:20;;;;;;;9.93;7.32;;;2.10;99.90;;;;;;5004738;28;20038;-62
2022/01/07 11:01:57;;;;;;;10.60;8.15;;;2.10;99.90;;;;;;5010067;28;20041;-62
2022/01/07 11:04:30;;;;;;;13.88;7.60;;;2.00;99.90;;;;;;5002354;28;20034;-62
2022/01/07 11:07:02;;;;;;;14.52;8.50;;;1.90;99.90;;;;;;5000937;28;20026;-62
2022/01/07 11:09:28;;;;;;;9.57;8.18;;;1.90;99.90;;;;;;5001760;28;20068;-63
2022/01/07 11:11:57;;;;;;;10.55;8.25;;;1.80;99.90;;;;;;5003764;28;20014;-62
2022/01/07 11:14:32;;;;;;;13.43;8.82;;;1.80;99.90;;;;;;5001895;28;20061;-62
2022/01/07 11:17:06;;;;;;;10.77;7.78;;;1.80;99.90;;;;;;5002329;28;20516;-62
2022/01/07 11:19:38;;;;;;;14.52;8.07;;;1.80;99.90;;;;;;5000963;28;20164;-62
2022/01/07 11:22:06;;;;;;;14.00;9.05;;;1.90;99.90;;;;;;5002403;28;20394;-62
2022/01/07 11:24:44;;;;;;;12.77;7.15;;;2.00;99.90;;;;;;4999485;28;20041;-62
2022/01/07 11:27:20;;;;;;;14.02;7.97;;;1.90;99.90;;;;;;5003264;28;20065;-62
2022/01/07 11:30:04;;;;;;;10.10;7.88;;;1.80;99.90;;;;;;5004997;28;20069;-62
2022/01/07 11:32:49;;;;;;;11.90;7.55;;;1.80;99.90;;;;;;5014613;28;20116;-62
2022/01/07 11:35:21;;;;;;;13.63;8.30;;;1.80;99.90;;;;;;5007888;28;20066;-62
2022/01/07 11:37:53;;;;;;;14.75;9.75;;;1.80;99.90;;;;;;5008199;28;20079;-62
2022/01/07 11:40:28;;;;;;;12.82;8.25;;;1.80;99.90;;;;;;5004887;28;20048;-62
2022/01/07 11:43:25;;;;;;;14.13;8.48;;;1.80;99.90;;;;;;5019912;28;20058;-62
2022/01/07 11:53:39;;;;;;;16.15;8.68;;;1.80;99.90;;;;;;5435438;22;20072;-93
2022/01/07 11:56:06;;;;;;;15.35;9.27;;;1.80;99.90;;;;;;5024440;28;20113;-92
2022/01/07 11:58:51;;;;;;;20.77;10.02;;;1.80;99.90;;;;;;5037720;28;20088;-94
2022/01/07 12:01:42;;;;;;;17.58;10.27;;;1.90;99.90;;;;;;5033271;28;20026;-95
2022/01/07 12:04:18;;;;;;;;;;;1.90;99.90;;;;;;5041480;28;20021;-94
2022/01/07 12:06:46;;;;;;;15.45;9.45;;;1.90;99.90;;;;;;5038974;28;19913;-94
2022/01/07 12:09:25;;;;;;;21.00;12.23;;;2.00;99.90;;;;;;5027025;28;20045;-94
2022/01/07 12:12:08;;;;;;;16.58;11.68;;;2.00;99.90;;;;;;5033664;28;20087;-93
2022/01/07 12:14:51;;;;;;;23.48;13.75;;;2.00;99.90;;;;;;5012013;28;20489;-94
2022/01/07 12:17:19;;;;;;;20.05;11.52;;;2.00;99.90;;;;;;5004012;28;20084;-92
2022/01/07 12:20:23;;;;;;;12.93;10.25;;;2.00;99.90;;;;;;5017854;28;20166;-93
2022/01/07 12:22:51;;;;;;;20.73;11.30;;;2.00;99.90;;;;;;4978305;28;20031;-91
2022/01/07 12:25:17;;;;;;;17.77;9.77;;;2.00;99.90;;;;;;4985875;28;20057;-93
2022/01/07 12:27:44;;;;;;;16.70;10.50;;;2.00;99.90;;;;;;5003151;28;20189;-95
2022/01/07 12:30:12;;;;;;;16.83;10.57;;;2.00;99.90;;;;;;4988675;28;20036;-93
2022/01/07 12:32:45;;;;;;;17.77;11.55;;;2.00;99.90;;;;;;5023908;28;20113;-94
2022/01/07 12:35:12;;;;;;;17.58;10.57;;;1.90;99.90;;;;;;5012025;28;20026;-93
2022/01/07 12:37:41;;;;;;;15.38;12.07;;;1.90;99.90;;;;;;5001896;28;20029;-92
2022/01/07 12:40:10;;;;;;;17.25;10.90;;;1.80;99.90;;;;;;5014207;28;20041;-93
2022/01/07 12:42:40;;;;;;;20.48;11.20;;;1.80;99.90;;;;;;4998047;28;20031;-93
2022/01/07 12:45:06;;;;;;;18.25;12.05;;;1.70;99.90;;;;;;4999703;28;20106;-93
2022/01/07 12:47:33;;;;;;;18.77;11.43;;;1.70;99.90;;;;;;5018287;28;20052;-92
2022/01/07 12:50:02;;;;;;;17.83;10.90;;;1.60;99.90;;;;;;5000082;28;20030;-92
2022/01/07 12:52:33;;;;;;;22.00;12.00;;;1.60;99.90;;;;;;5006894;28;20117;-92
2022/01/07 12:55:06;;;;;;;22.50;12.27;;;1.60;99.90;;;;;;5025814;28;20110;-93
2022/01/07 12:57:57;;;;;;;22.88;11.65;;;1.60;99.90;;;;;;5017879;28;20125;-92
2022/01/07 13:00:28;;;;;;;23.33;12.35;;;1.60;99.90;;;;;;5022118;28;20026;-93